sensor_id;sensor_type;location;lat;lon;timestamp;P1;durP1;ratioP1;P2;durP2;ratioP2
20073;SDS011;10197;54.282;10.078;2022-09-21T00:00:28;6.35;;;5.20;;
20073;SDS011;10197;54.282;10.078;2022-09-21T00:02:56;7.75;;;4.88;;
20073;SDS011;10197;54.282;10.078;2022-09-21T00:05:23;6.57;;;5.15;;
20073;SDS011;10197;54.282;10.078;2022-09-21T00:07:50;7.43;;;5.40;;
20073;SDS011;10197;54.282;10.078;2022-09-21T00:10:17;5.95;;;4.85;;
20073;SDS011;10197;54.282;10.078;2022-09-21T00:12:45;5.65;;;4.70;;
20073;SDS011;10197;54.282;10.078;2022-09-21T00:15:13;6.78;;;4.70;;
20073;SDS011;10197;54.282;10.078;2022-09-21T00:17:42;5.63;;;4.38;;
20073;SDS011;10197;54.282;10.078;2022-09-21T00:20:10;6.10;;;4.57;;
20073;SDS011;10197;54.282;10.078;2022-09-21T00:22:37;4.85;;;4.15;;
20073;SDS011;10197;54.282;10.078;2022-09-21T00:25:05;4.70;;;4.20;;
20073;SDS011;10197;54.282;10.078;2022-09-21T00:27:33;5.22;;;4.28;;
20073;SDS011;10197;54.282;10.078;2022-09-21T00:30:00;4.80;;;4.30;;
20073;SDS011;10197;54.282;10.078;2022-09-21T00:32:27;4.55;;;4.05;;
20073;SDS011;10197;54.282;10.078;2022-09-21T00:34:56;4.82;;;3.95;;
20073;SDS011;10197;54.282;10.078;2022-09-21T00:37:24;4.25;;;3.53;;
20073;SDS011;10197;54.282;10.078;2022-09-21T00:39:51;4.95;;;3.60;;
20073;SDS011;10197;54.282;10.078;2022-09-21T00:42:19;5.10;;;3.78;;
20073;SDS011;10197;54.282;10.078;2022-09-21T00:44:48;6.15;;;3.90;;
20073;SDS011;10197;54.282;10.078;2022-09-21T00:47:15;5.10;;;4.47;;
20073;SDS011;10197;54.282;10.078;2022-09-21T00:49:45;6.13;;;4.38;;
20073;SDS011;10197;54.282;10.078;2022-09-21T00:52:13;5.40;;;3.95;;
20073;SDS011;10197;54.282;10.078;2022-09-21T00:54:43;5.15;;;4.20;;
20073;SDS011;10197;54.282;10.078;2022-09-21T00:57:13;4.90;;;3.90;;
20073;SDS011;10197;54.282;10.078;2022-09-21T00:59:40;4.90;;;4.07;;
20073;SDS011;10197;54.282;10.078;2022-09-21T01:02:08;4.68;;;3.80;;
20073;SDS011;10197;54.282;10.078;2022-09-21T01:04:36;4.72;;;3.70;;
20073;SDS011;10197;54.282;10.078;2022-09-21T01:07:04;4.40;;;3.85;;
20073;SDS011;10197;54.282;10.078;2022-09-21T01:09:36;5.55;;;3.78;;
20073;SDS011;10197;54.282;10.078;2022-09-21T01:12:09;3.88;;;3.42;;
20073;SDS011;10197;54.282;10.078;2022-09-21T01:14:52;3.92;;;3.20;;
20073;SDS011;10197;54.282;10.078;2022-09-21T01:17:27;4.15;;;3.40;;
20073;SDS011;10197;54.282;10.078;2022-09-21T01:22:49;6.22;;;4.22;;
20073;SDS011;10197;54.282;10.078;2022-09-21T01:25:26;4.22;;;3.40;;
20073;SDS011;10197;54.282;10.078;2022-09-21T01:28:05;5.03;;;3.40;;
20073;SDS011;10197;54.282;10.078;2022-09-21T01:30:38;3.88;;;3.47;;
20073;SDS011;10197;54.282;10.078;2022-09-21T01:33:08;3.70;;;3.00;;
20073;SDS011;10197;54.282;10.078;2022-09-21T01:35:40;3.83;;;3.30;;
20073;SDS011;10197;54.282;10.078;2022-09-21T01:38:11;4.10;;;3.10;;
20073;SDS011;10197;54.282;10.078;2022-09-21T01:40:42;3.42;;;3.13;;
20073;SDS011;10197;54.282;10.078;2022-09-21T01:43:10;5.60;;;3.00;;
20073;SDS011;10197;54.282;10.078;2022-09-21T01:45:41;3.05;;;2.75;;
20073;SDS011;10197;54.282;10.078;2022-09-21T01:48:15;4.15;;;3.00;;
20073;SDS011;10197;54.282;10.078;2022-09-21T01:50:45;4.00;;;3.17;;
20073;SDS011;10197;54.282;10.078;2022-09-21T01:53:15;3.22;;;2.92;;
20073;SDS011;10197;54.282;10.078;2022-09-21T01:55:45;3.20;;;2.90;;
20073;SDS011;10197;54.282;10.078;2022-09-21T01:58:17;4.35;;;2.83;;
20073;SDS011;10197;54.282;10.078;2022-09-21T02:00:47;5.32;;;3.15;;
20073;SDS011;10197;54.282;10.078;2022-09-21T02:03:15;4.68;;;2.92;;
20073;SDS011;10197;54.282;10.078;2022-09-21T02:05:46;3.60;;;2.78;;
20073;SDS011;10197;54.282;10.078;2022-09-21T02:08:12;3.10;;;2.80;;
20073;SDS011;10197;54.282;10.078;2022-09-21T02:10:41;4.22;;;2.55;;
20073;SDS011;10197;54.282;10.078;2022-09-21T02:13:10;3.20;;;2.75;;
20073;SDS011;10197;54.282;10.078;2022-09-21T02:15:43;4.15;;;2.78;;
20073;SDS011;10197;54.282;10.078;2022-09-21T02:18:19;3.00;;;2.67;;
20073;SDS011;10197;54.282;10.078;2022-09-21T02:20:54;2.92;;;2.67;;
20073;SDS011;10197;54.282;10.078;2022-09-21T02:23:28;3.55;;;2.50;;
20073;SDS011;10197;54.282;10.078;2022-09-21T02:25:58;3.65;;;2.60;;
20073;SDS011;10197;54.282;10.078;2022-09-21T02:28:32;6.78;;;2.70;;
20073;SDS011;10197;54.282;10.078;2022-09-21T02:31:09;3.15;;;2.67;;
20073;SDS011;10197;54.282;10.078;2022-09-21T02:33:41;2.83;;;2.63;;
20073;SDS011;10197;54.282;10.078;2022-09-21T02:36:14;2.47;;;2.28;;
20073;SDS011;10197;54.282;10.078;2022-09-21T02:38:46;3.00;;;2.70;;
20073;SDS011;10197;54.282;10.078;2022-09-21T02:41:18;3.03;;;2.80;;
20073;SDS011;10197;54.282;10.078;2022-09-21T02:43:49;3.08;;;2.75;;
20073;SDS011;10197;54.282;10.078;2022-09-21T02:46:20;3.13;;;2.33;;
20073;SDS011;10197;54.282;10.078;2022-09-21T02:48:51;2.80;;;2.60;;
20073;SDS011;10197;54.282;10.078;2022-09-21T02:51:20;2.72;;;2.47;;
20073;SDS011;10197;54.282;10.078;2022-09-21T02:53:50;4.22;;;2.60;;
20073;SDS011;10197;54.282;10.078;2022-09-21T02:56:21;3.75;;;2.60;;
20073;SDS011;10197;54.282;10.078;2022-09-21T02:58:49;2.67;;;2.47;;
20073;SDS011;10197;54.282;10.078;2022-09-21T03:01:22;4.00;;;2.65;;
20073;SDS011;10197;54.282;10.078;2022-09-21T03:03:50;4.18;;;2.33;;
20073;SDS011;10197;54.282;10.078;2022-09-21T03:06:17;2.50;;;2.17;;
20073;SDS011;10197;54.282;10.078;2022-09-21T03:08:44;3.90;;;2.65;;
20073;SDS011;10197;54.282;10.078;2022-09-21T03:11:14;3.00;;;2.50;;
20073;SDS011;10197;54.282;10.078;2022-09-21T03:13:41;3.13;;;2.13;;
20073;SDS011;10197;54.282;10.078;2022-09-21T03:16:08;3.13;;;2.80;;
20073;SDS011;10197;54.282;10.078;2022-09-21T03:18:37;2.65;;;2.45;;
20073;SDS011;10197;54.282;10.078;2022-09-21T03:21:04;4.68;;;2.38;;
20073;SDS011;10197;54.282;10.078;2022-09-21T03:23:31;4.43;;;2.60;;
20073;SDS011;10197;54.282;10.078;2022-09-21T03:25:58;3.30;;;2.70;;
20073;SDS011;10197;54.282;10.078;2022-09-21T03:28:28;2.33;;;2.13;;
20073;SDS011;10197;54.282;10.078;2022-09-21T03:30:55;2.90;;;2.30;;
20073;SDS011;10197;54.282;10.078;2022-09-21T03:33:22;3.38;;;2.45;;
20073;SDS011;10197;54.282;10.078;2022-09-21T03:35:50;2.80;;;2.50;;
20073;SDS011;10197;54.282;10.078;2022-09-21T03:38:17;2.60;;;2.30;;
20073;SDS011;10197;54.282;10.078;2022-09-21T03:40:45;3.15;;;2.58;;
20073;SDS011;10197;54.282;10.078;2022-09-21T03:43:12;2.70;;;2.50;;
20073;SDS011;10197;54.282;10.078;2022-09-21T03:45:39;3.95;;;2.50;;
20073;SDS011;10197;54.282;10.078;2022-09-21T03:48:09;2.67;;;2.47;;
20073;SDS011;10197;54.282;10.078;2022-09-21T03:50:36;2.60;;;2.40;;
20073;SDS011;10197;54.282;10.078;2022-09-21T03:53:05;3.97;;;2.50;;
20073;SDS011;10197;54.282;10.078;2022-09-21T03:55:33;2.30;;;2.10;;
20073;SDS011;10197;54.282;10.078;2022-09-21T03:58:00;3.00;;;2.22;;
20073;SDS011;10197;54.282;10.078;2022-09-21T04:00:27;2.65;;;2.45;;
20073;SDS011;10197;54.282;10.078;2022-09-21T04:02:54;4.45;;;2.40;;
20073;SDS011;10197;54.282;10.078;2022-09-21T04:05:21;2.63;;;2.22;;
20073;SDS011;10197;54.282;10.078;2022-09-21T04:07:48;3.17;;;2.70;;
20073;SDS011;10197;54.282;10.078;2022-09-21T04:10:17;2.58;;;2.08;;
20073;SDS011;10197;54.282;10.078;2022-09-21T04:12:45;3.55;;;2.33;;
20073;SDS011;10197;54.282;10.078;2022-09-21T04:15:13;2.75;;;2.45;;
20073;SDS011;10197;54.282;10.078;2022-09-21T04:17:41;3.85;;;2.60;;
20073;SDS011;10197;54.282;10.078;2022-09-21T04:20:08;2.88;;;2.55;;
20073;SDS011;10197;54.282;10.078;2022-09-21T04:22:35;2.42;;;2.22;;
20073;SDS011;10197;54.282;10.078;2022-09-21T04:25:02;2.53;;;2.30;;
20073;SDS011;10197;54.282;10.078;2022-09-21T04:27:31;2.17;;;2.00;;
20073;SDS011;10197;54.282;10.078;2022-09-21T04:29:58;2.70;;;2.42;;
20073;SDS011;10197;54.282;10.078;2022-09-21T04:32:25;2.47;;;2.22;;
20073;SDS011;10197;54.282;10.078;2022-09-21T04:34:52;2.70;;;2.50;;
20073;SDS011;10197;54.282;10.078;2022-09-21T04:37:21;5.97;;;3.50;;
20073;SDS011;10197;54.282;10.078;2022-09-21T04:39:48;8.55;;;5.47;;
20073;SDS011;10197;54.282;10.078;2022-09-21T04:42:15;5.88;;;3.83;;
20073;SDS011;10197;54.282;10.078;2022-09-21T04:44:43;4.28;;;3.50;;
20073;SDS011;10197;54.282;10.078;2022-09-21T04:47:11;4.45;;;2.97;;
20073;SDS011;10197;54.282;10.078;2022-09-21T04:49:38;3.45;;;3.10;;
20073;SDS011;10197;54.282;10.078;2022-09-21T04:52:05;3.17;;;2.80;;
20073;SDS011;10197;54.282;10.078;2022-09-21T04:54:32;3.08;;;2.58;;
20073;SDS011;10197;54.282;10.078;2022-09-21T04:56:59;3.30;;;2.60;;
20073;SDS011;10197;54.282;10.078;2022-09-21T04:59:26;3.80;;;2.65;;
20073;SDS011;10197;54.282;10.078;2022-09-21T05:01:54;3.22;;;2.30;;
20073;SDS011;10197;54.282;10.078;2022-09-21T05:04:20;2.50;;;2.30;;
20073;SDS011;10197;54.282;10.078;2022-09-21T05:06:47;5.30;;;2.38;;
20073;SDS011;10197;54.282;10.078;2022-09-21T05:09:14;2.53;;;2.30;;
20073;SDS011;10197;54.282;10.078;2022-09-21T05:11:58;2.55;;;2.35;;
20073;SDS011;10197;54.282;10.078;2022-09-21T05:14:25;4.07;;;2.40;;
20073;SDS011;10197;54.282;10.078;2022-09-21T05:16:53;2.60;;;2.33;;
20073;SDS011;10197;54.282;10.078;2022-09-21T05:19:20;2.75;;;2.42;;
20073;SDS011;10197;54.282;10.078;2022-09-21T05:21:47;3.85;;;2.30;;
20073;SDS011;10197;54.282;10.078;2022-09-21T05:24:13;2.95;;;2.63;;
20073;SDS011;10197;54.282;10.078;2022-09-21T05:26:40;4.47;;;2.88;;
20073;SDS011;10197;54.282;10.078;2022-09-21T05:29:07;5.32;;;3.58;;
20073;SDS011;10197;54.282;10.078;2022-09-21T05:31:37;6.13;;;4.32;;
20073;SDS011;10197;54.282;10.078;2022-09-21T05:34:13;5.13;;;3.92;;
20073;SDS011;10197;54.282;10.078;2022-09-21T05:36:47;5.40;;;3.45;;
20073;SDS011;10197;54.282;10.078;2022-09-21T05:39:18;5.13;;;3.40;;
20073;SDS011;10197;54.282;10.078;2022-09-21T05:41:45;5.57;;;3.25;;
20073;SDS011;10197;54.282;10.078;2022-09-21T05:44:13;3.40;;;3.10;;
20073;SDS011;10197;54.282;10.078;2022-09-21T05:46:40;4.15;;;3.47;;
20073;SDS011;10197;54.282;10.078;2022-09-21T05:49:16;4.93;;;3.10;;
20073;SDS011;10197;54.282;10.078;2022-09-21T05:51:47;5.15;;;3.65;;
20073;SDS011;10197;54.282;10.078;2022-09-21T05:54:22;5.47;;;3.55;;
20073;SDS011;10197;54.282;10.078;2022-09-21T05:56:55;7.30;;;5.60;;
20073;SDS011;10197;54.282;10.078;2022-09-21T05:59:34;10.40;;;6.63;;
20073;SDS011;10197;54.282;10.078;2022-09-21T06:02:12;10.10;;;8.18;;
20073;SDS011;10197;54.282;10.078;2022-09-21T06:04:47;16.85;;;10.27;;
20073;SDS011;10197;54.282;10.078;2022-09-21T06:07:14;13.85;;;9.45;;
20073;SDS011;10197;54.282;10.078;2022-09-21T06:09:41;22.08;;;11.60;;
20073;SDS011;10197;54.282;10.078;2022-09-21T06:12:07;19.27;;;12.07;;
20073;SDS011;10197;54.282;10.078;2022-09-21T06:14:35;17.40;;;10.90;;
20073;SDS011;10197;54.282;10.078;2022-09-21T06:17:02;15.80;;;10.35;;
20073;SDS011;10197;54.282;10.078;2022-09-21T06:19:30;16.23;;;10.30;;
20073;SDS011;10197;54.282;10.078;2022-09-21T06:21:58;14.95;;;9.02;;
20073;SDS011;10197;54.282;10.078;2022-09-21T06:24:25;13.75;;;7.90;;
20073;SDS011;10197;54.282;10.078;2022-09-21T06:26:51;10.80;;;7.30;;
20073;SDS011;10197;54.282;10.078;2022-09-21T06:29:18;11.52;;;7.43;;
20073;SDS011;10197;54.282;10.078;2022-09-21T06:31:48;9.45;;;6.43;;
20073;SDS011;10197;54.282;10.078;2022-09-21T06:34:15;9.32;;;6.25;;
20073;SDS011;10197;54.282;10.078;2022-09-21T06:36:42;8.18;;;5.45;;
20073;SDS011;10197;54.282;10.078;2022-09-21T06:39:11;5.40;;;4.80;;
20073;SDS011;10197;54.282;10.078;2022-09-21T06:41:38;9.73;;;4.90;;
20073;SDS011;10197;54.282;10.078;2022-09-21T06:44:08;7.63;;;5.18;;
20073;SDS011;10197;54.282;10.078;2022-09-21T06:46:35;6.47;;;4.35;;
20073;SDS011;10197;54.282;10.078;2022-09-21T06:49:02;8.73;;;5.38;;
20073;SDS011;10197;54.282;10.078;2022-09-21T06:51:29;6.82;;;5.05;;
20073;SDS011;10197;54.282;10.078;2022-09-21T06:53:56;6.70;;;5.13;;
20073;SDS011;10197;54.282;10.078;2022-09-21T06:56:24;7.80;;;4.65;;
20073;SDS011;10197;54.282;10.078;2022-09-21T06:58:51;5.95;;;4.43;;
20073;SDS011;10197;54.282;10.078;2022-09-21T07:01:19;7.78;;;4.80;;
20073;SDS011;10197;54.282;10.078;2022-09-21T07:03:47;6.18;;;4.60;;
20073;SDS011;10197;54.282;10.078;2022-09-21T07:06:15;7.13;;;4.60;;
20073;SDS011;10197;54.282;10.078;2022-09-21T07:08:42;6.20;;;4.80;;
20073;SDS011;10197;54.282;10.078;2022-09-21T07:11:10;6.72;;;4.68;;
20073;SDS011;10197;54.282;10.078;2022-09-21T07:13:39;5.95;;;4.28;;
20073;SDS011;10197;54.282;10.078;2022-09-21T07:16:07;7.72;;;4.95;;
20073;SDS011;10197;54.282;10.078;2022-09-21T07:18:34;7.60;;;4.95;;
20073;SDS011;10197;54.282;10.078;2022-09-21T07:21:03;7.80;;;5.25;;
20073;SDS011;10197;54.282;10.078;2022-09-21T07:23:30;8.43;;;6.00;;
20073;SDS011;10197;54.282;10.078;2022-09-21T07:25:59;7.22;;;5.35;;
20073;SDS011;10197;54.282;10.078;2022-09-21T07:28:27;7.07;;;5.32;;
20073;SDS011;10197;54.282;10.078;2022-09-21T07:30:55;9.13;;;5.80;;
20073;SDS011;10197;54.282;10.078;2022-09-21T07:33:22;7.55;;;5.32;;
20073;SDS011;10197;54.282;10.078;2022-09-21T07:35:50;8.25;;;5.50;;
20073;SDS011;10197;54.282;10.078;2022-09-21T07:38:17;6.72;;;5.38;;
20073;SDS011;10197;54.282;10.078;2022-09-21T07:40:44;7.97;;;4.57;;
20073;SDS011;10197;54.282;10.078;2022-09-21T07:43:10;6.80;;;4.70;;
20073;SDS011;10197;54.282;10.078;2022-09-21T07:45:37;7.68;;;4.40;;
20073;SDS011;10197;54.282;10.078;2022-09-21T07:48:07;7.85;;;4.35;;
20073;SDS011;10197;54.282;10.078;2022-09-21T07:50:35;6.22;;;5.28;;
20073;SDS011;10197;54.282;10.078;2022-09-21T07:53:02;5.95;;;4.30;;
20073;SDS011;10197;54.282;10.078;2022-09-21T07:55:31;8.57;;;4.15;;
20073;SDS011;10197;54.282;10.078;2022-09-21T07:57:58;6.05;;;3.60;;
20073;SDS011;10197;54.282;10.078;2022-09-21T08:00:42;4.25;;;3.35;;
20073;SDS011;10197;54.282;10.078;2022-09-21T08:03:10;4.70;;;3.33;;
20073;SDS011;10197;54.282;10.078;2022-09-21T08:05:37;3.25;;;2.95;;
20073;SDS011;10197;54.282;10.078;2022-09-21T08:08:04;3.15;;;2.67;;
20073;SDS011;10197;54.282;10.078;2022-09-21T08:10:30;2.58;;;2.38;;
20073;SDS011;10197;54.282;10.078;2022-09-21T08:12:58;3.67;;;2.63;;
20073;SDS011;10197;54.282;10.078;2022-09-21T08:15:24;2.65;;;1.95;;
20073;SDS011;10197;54.282;10.078;2022-09-21T08:17:52;2.30;;;1.80;;
20073;SDS011;10197;54.282;10.078;2022-09-21T08:20:20;3.13;;;1.90;;
20073;SDS011;10197;54.282;10.078;2022-09-21T08:22:47;2.00;;;1.73;;
20073;SDS011;10197;54.282;10.078;2022-09-21T08:25:14;2.30;;;2.10;;
20073;SDS011;10197;54.282;10.078;2022-09-21T08:27:41;3.47;;;1.67;;
20073;SDS011;10197;54.282;10.078;2022-09-21T08:30:08;2.55;;;1.88;;
20073;SDS011;10197;54.282;10.078;2022-09-21T08:32:38;3.13;;;1.65;;
20073;SDS011;10197;54.282;10.078;2022-09-21T08:35:05;1.83;;;1.42;;
20073;SDS011;10197;54.282;10.078;2022-09-21T08:37:34;2.30;;;1.30;;
20073;SDS011;10197;54.282;10.078;2022-09-21T08:40:03;1.48;;;1.30;;
20073;SDS011;10197;54.282;10.078;2022-09-21T08:42:41;1.60;;;1.40;;
20073;SDS011;10197;54.282;10.078;2022-09-21T08:45:15;3.83;;;1.40;;
20073;SDS011;10197;54.282;10.078;2022-09-21T08:47:44;1.60;;;1.50;;
20073;SDS011;10197;54.282;10.078;2022-09-21T08:50:18;2.10;;;1.50;;
20073;SDS011;10197;54.282;10.078;2022-09-21T08:53:03;1.20;;;1.10;;
20073;SDS011;10197;54.282;10.078;2022-09-21T08:55:31;1.58;;;1.17;;
20073;SDS011;10197;54.282;10.078;2022-09-21T08:57:58;1.83;;;0.80;;
20073;SDS011;10197;54.282;10.078;2022-09-21T09:00:25;0.70;;;0.70;;
20073;SDS011;10197;54.282;10.078;2022-09-21T09:05:43;1.05;;;1.00;;
20073;SDS011;10197;54.282;10.078;2022-09-21T09:08:20;2.80;;;0.90;;
20073;SDS011;10197;54.282;10.078;2022-09-21T09:11:01;0.70;;;0.70;;
20073;SDS011;10197;54.282;10.078;2022-09-21T09:13:39;3.05;;;1.00;;
20073;SDS011;10197;54.282;10.078;2022-09-21T09:16:16;1.08;;;0.90;;
20073;SDS011;10197;54.282;10.078;2022-09-21T09:18:45;1.00;;;0.90;;
20073;SDS011;10197;54.282;10.078;2022-09-21T09:21:15;1.67;;;0.82;;
20073;SDS011;10197;54.282;10.078;2022-09-21T09:23:47;1.38;;;0.75;;
20073;SDS011;10197;54.282;10.078;2022-09-21T09:26:18;0.60;;;0.60;;
20073;SDS011;10197;54.282;10.078;2022-09-21T09:28:49;6.93;;;1.10;;
20073;SDS011;10197;54.282;10.078;2022-09-21T09:31:18;1.00;;;0.70;;
20073;SDS011;10197;54.282;10.078;2022-09-21T09:33:49;2.72;;;1.00;;
20073;SDS011;10197;54.282;10.078;2022-09-21T09:36:19;0.70;;;0.70;;
20073;SDS011;10197;54.282;10.078;2022-09-21T09:38:49;0.60;;;0.60;;
20073;SDS011;10197;54.282;10.078;2022-09-21T09:41:24;0.73;;;0.70;;
20073;SDS011;10197;54.282;10.078;2022-09-21T09:44:05;0.50;;;0.50;;
20073;SDS011;10197;54.282;10.078;2022-09-21T09:46:48;0.63;;;0.63;;
20073;SDS011;10197;54.282;10.078;2022-09-21T09:49:26;0.98;;;0.80;;
20073;SDS011;10197;54.282;10.078;2022-09-21T09:51:57;0.85;;;0.70;;
20073;SDS011;10197;54.282;10.078;2022-09-21T09:54:25;1.38;;;0.80;;
20073;SDS011;10197;54.282;10.078;2022-09-21T09:56:53;1.42;;;0.75;;
20073;SDS011;10197;54.282;10.078;2022-09-21T09:59:22;0.70;;;0.70;;
20073;SDS011;10197;54.282;10.078;2022-09-21T10:01:59;1.75;;;0.60;;
20073;SDS011;10197;54.282;10.078;2022-09-21T10:04:27;0.80;;;0.80;;
20073;SDS011;10197;54.282;10.078;2022-09-21T10:06:54;1.42;;;0.80;;
20073;SDS011;10197;54.282;10.078;2022-09-21T10:09:26;0.77;;;0.60;;
20073;SDS011;10197;54.282;10.078;2022-09-21T10:11:55;0.70;;;0.65;;
20073;SDS011;10197;54.282;10.078;2022-09-21T10:14:24;0.60;;;0.60;;
20073;SDS011;10197;54.282;10.078;2022-09-21T10:16:54;1.67;;;0.60;;
20073;SDS011;10197;54.282;10.078;2022-09-21T10:19:22;1.50;;;0.70;;
20073;SDS011;10197;54.282;10.078;2022-09-21T10:21:51;1.17;;;0.70;;
20073;SDS011;10197;54.282;10.078;2022-09-21T10:24:22;0.70;;;0.70;;
20073;SDS011;10197;54.282;10.078;2022-09-21T10:26:51;1.05;;;0.60;;
20073;SDS011;10197;54.282;10.078;2022-09-21T10:29:37;0.93;;;0.70;;
20073;SDS011;10197;54.282;10.078;2022-09-21T10:32:17;0.75;;;0.43;;
20073;SDS011;10197;54.282;10.078;2022-09-21T10:35:00;0.77;;;0.77;;
20073;SDS011;10197;54.282;10.078;2022-09-21T10:37:38;1.02;;;0.60;;
20073;SDS011;10197;54.282;10.078;2022-09-21T10:40:10;0.60;;;0.60;;
20073;SDS011;10197;54.282;10.078;2022-09-21T10:42:50;0.70;;;0.70;;
20073;SDS011;10197;54.282;10.078;2022-09-21T10:45:19;1.27;;;1.10;;
20073;SDS011;10197;54.282;10.078;2022-09-21T10:47:48;0.60;;;0.60;;
20073;SDS011;10197;54.282;10.078;2022-09-21T10:50:21;1.05;;;0.70;;
20073;SDS011;10197;54.282;10.078;2022-09-21T10:52:50;1.00;;;0.60;;
20073;SDS011;10197;54.282;10.078;2022-09-21T10:55:21;0.63;;;0.50;;
20073;SDS011;10197;54.282;10.078;2022-09-21T10:57:50;0.50;;;0.50;;
20073;SDS011;10197;54.282;10.078;2022-09-21T11:00:31;0.50;;;0.50;;
20073;SDS011;10197;54.282;10.078;2022-09-21T11:03:02;0.50;;;0.50;;
20073;SDS011;10197;54.282;10.078;2022-09-21T11:05:52;0.45;;;0.45;;
20073;SDS011;10197;54.282;10.078;2022-09-21T11:08:22;0.68;;;0.50;;
20073;SDS011;10197;54.282;10.078;2022-09-21T11:10:59;0.43;;;0.43;;
20073;SDS011;10197;54.282;10.078;2022-09-21T11:13:34;1.38;;;0.55;;
20073;SDS011;10197;54.282;10.078;2022-09-21T11:16:03;0.63;;;0.60;;
20073;SDS011;10197;54.282;10.078;2022-09-21T11:18:39;0.80;;;0.60;;
20073;SDS011;10197;54.282;10.078;2022-09-21T11:21:13;0.50;;;0.50;;
20073;SDS011;10197;54.282;10.078;2022-09-21T11:23:46;0.60;;;0.50;;
20073;SDS011;10197;54.282;10.078;2022-09-21T11:26:18;0.50;;;0.50;;
20073;SDS011;10197;54.282;10.078;2022-09-21T11:28:52;0.50;;;0.50;;
20073;SDS011;10197;54.282;10.078;2022-09-21T11:31:36;0.40;;;0.40;;
20073;SDS011;10197;54.282;10.078;2022-09-21T11:34:21;0.50;;;0.50;;
20073;SDS011;10197;54.282;10.078;2022-09-21T11:37:06;0.47;;;0.47;;
20073;SDS011;10197;54.282;10.078;2022-09-21T11:39:43;0.73;;;0.60;;
20073;SDS011;10197;54.282;10.078;2022-09-21T11:42:22;0.60;;;0.60;;
20073;SDS011;10197;54.282;10.078;2022-09-21T11:45:04;0.95;;;0.50;;
20073;SDS011;10197;54.282;10.078;2022-09-21T11:47:40;0.50;;;0.50;;
20073;SDS011;10197;54.282;10.078;2022-09-21T11:50:30;0.50;;;0.50;;
20073;SDS011;10197;54.282;10.078;2022-09-21T11:53:07;0.75;;;0.50;;
20073;SDS011;10197;54.282;10.078;2022-09-21T11:58:38;0.50;;;0.47;;
20073;SDS011;10197;54.282;10.078;2022-09-21T12:01:12;1.13;;;0.50;;
20073;SDS011;10197;54.282;10.078;2022-09-21T12:03:52;2.10;;;0.50;;
20073;SDS011;10197;54.282;10.078;2022-09-21T12:06:31;1.50;;;0.60;;
20073;SDS011;10197;54.282;10.078;2022-09-21T12:12:19;0.43;;;0.43;;
20073;SDS011;10197;54.282;10.078;2022-09-21T12:14:48;0.50;;;0.50;;
20073;SDS011;10197;54.282;10.078;2022-09-21T12:17:23;0.40;;;0.40;;
20073;SDS011;10197;54.282;10.078;2022-09-21T12:19:58;0.60;;;0.60;;
20073;SDS011;10197;54.282;10.078;2022-09-21T12:22:30;0.73;;;0.60;;
20073;SDS011;10197;54.282;10.078;2022-09-21T12:25:00;0.60;;;0.60;;
20073;SDS011;10197;54.282;10.078;2022-09-21T12:27:31;0.38;;;0.38;;
20073;SDS011;10197;54.282;10.078;2022-09-21T12:30:02;1.05;;;0.60;;
20073;SDS011;10197;54.282;10.078;2022-09-21T12:32:35;0.85;;;0.57;;
20073;SDS011;10197;54.282;10.078;2022-09-21T12:35:14;0.50;;;0.50;;
20073;SDS011;10197;54.282;10.078;2022-09-21T12:37:53;1.00;;;0.50;;
20073;SDS011;10197;54.282;10.078;2022-09-21T12:40:26;0.80;;;0.50;;
20073;SDS011;10197;54.282;10.078;2022-09-21T12:42:57;0.40;;;0.40;;
20073;SDS011;10197;54.282;10.078;2022-09-21T12:45:26;0.40;;;0.40;;
20073;SDS011;10197;54.282;10.078;2022-09-21T12:47:58;0.73;;;0.50;;
20073;SDS011;10197;54.282;10.078;2022-09-21T12:50:30;1.27;;;0.90;;
20073;SDS011;10197;54.282;10.078;2022-09-21T12:53:03;0.70;;;0.60;;
20073;SDS011;10197;54.282;10.078;2022-09-21T12:55:33;1.38;;;0.57;;
20073;SDS011;10197;54.282;10.078;2022-09-21T12:58:11;0.50;;;0.50;;
20073;SDS011;10197;54.282;10.078;2022-09-21T13:00:45;0.70;;;0.70;;
20073;SDS011;10197;54.282;10.078;2022-09-21T13:03:17;1.80;;;0.70;;
20073;SDS011;10197;54.282;10.078;2022-09-21T13:05:49;0.38;;;0.38;;
20073;SDS011;10197;54.282;10.078;2022-09-21T13:08:31;1.02;;;0.40;;
20073;SDS011;10197;54.282;10.078;2022-09-21T13:11:01;0.57;;;0.57;;
20073;SDS011;10197;54.282;10.078;2022-09-21T13:13:30;0.50;;;0.50;;
20073;SDS011;10197;54.282;10.078;2022-09-21T13:15:58;0.50;;;0.50;;
20073;SDS011;10197;54.282;10.078;2022-09-21T13:18:31;2.25;;;0.60;;
20073;SDS011;10197;54.282;10.078;2022-09-21T13:20:59;0.50;;;0.50;;
20073;SDS011;10197;54.282;10.078;2022-09-21T13:23:29;1.45;;;0.60;;
20073;SDS011;10197;54.282;10.078;2022-09-21T13:26:00;0.57;;;0.50;;
20073;SDS011;10197;54.282;10.078;2022-09-21T13:28:39;2.35;;;0.60;;
20073;SDS011;10197;54.282;10.078;2022-09-21T13:34:25;0.85;;;0.60;;
20073;SDS011;10197;54.282;10.078;2022-09-21T13:37:12;1.23;;;0.60;;
20073;SDS011;10197;54.282;10.078;2022-09-21T13:43:08;0.77;;;0.57;;
20073;SDS011;10197;54.282;10.078;2022-09-21T13:45:49;0.82;;;0.43;;
20073;SDS011;10197;54.282;10.078;2022-09-21T13:48:21;1.98;;;0.50;;
20073;SDS011;10197;54.282;10.078;2022-09-21T13:51:04;0.63;;;0.40;;
20073;SDS011;10197;54.282;10.078;2022-09-21T13:53:34;0.40;;;0.40;;
20073;SDS011;10197;54.282;10.078;2022-09-21T13:56:06;0.50;;;0.50;;
20073;SDS011;10197;54.282;10.078;2022-09-21T13:58:34;1.83;;;0.52;;
20073;SDS011;10197;54.282;10.078;2022-09-21T14:01:12;0.75;;;0.63;;
20073;SDS011;10197;54.282;10.078;2022-09-21T14:03:41;0.57;;;0.40;;
20073;SDS011;10197;54.282;10.078;2022-09-21T14:06:12;2.05;;;0.55;;
20073;SDS011;10197;54.282;10.078;2022-09-21T14:08:44;0.60;;;0.50;;
20073;SDS011;10197;54.282;10.078;2022-09-21T14:11:14;0.85;;;0.65;;
20073;SDS011;10197;54.282;10.078;2022-09-21T14:13:44;2.22;;;1.02;;
20073;SDS011;10197;54.282;10.078;2022-09-21T14:22:33;1.50;;;0.70;;
20073;SDS011;10197;54.282;10.078;2022-09-21T14:27:51;1.52;;;0.50;;
20073;SDS011;10197;54.282;10.078;2022-09-21T14:30:20;1.55;;;0.60;;
20073;SDS011;10197;54.282;10.078;2022-09-21T14:32:49;1.40;;;0.60;;
20073;SDS011;10197;54.282;10.078;2022-09-21T14:35:19;0.55;;;0.40;;
20073;SDS011;10197;54.282;10.078;2022-09-21T14:37:54;1.65;;;0.60;;
20073;SDS011;10197;54.282;10.078;2022-09-21T14:40:23;0.82;;;0.47;;
20073;SDS011;10197;54.282;10.078;2022-09-21T14:42:53;0.70;;;0.60;;
20073;SDS011;10197;54.282;10.078;2022-09-21T14:45:29;0.82;;;0.50;;
20073;SDS011;10197;54.282;10.078;2022-09-21T14:48:07;1.38;;;0.60;;
20073;SDS011;10197;54.282;10.078;2022-09-21T14:50:42;0.98;;;0.55;;
20073;SDS011;10197;54.282;10.078;2022-09-21T14:53:27;1.70;;;0.50;;
20073;SDS011;10197;54.282;10.078;2022-09-21T14:56:10;1.27;;;0.60;;
20073;SDS011;10197;54.282;10.078;2022-09-21T14:58:49;1.05;;;0.60;;
20073;SDS011;10197;54.282;10.078;2022-09-21T15:01:34;1.75;;;0.50;;
20073;SDS011;10197;54.282;10.078;2022-09-21T15:04:13;0.57;;;0.57;;
20073;SDS011;10197;54.282;10.078;2022-09-21T15:06:51;1.17;;;0.70;;
20073;SDS011;10197;54.282;10.078;2022-09-21T15:09:51;2.78;;;0.70;;
20073;SDS011;10197;54.282;10.078;2022-09-21T15:12:46;2.60;;;2.35;;
20073;SDS011;10197;54.282;10.078;2022-09-21T15:15:25;4.15;;;2.38;;
20073;SDS011;10197;54.282;10.078;2022-09-21T15:18:00;3.33;;;2.35;;
20073;SDS011;10197;54.282;10.078;2022-09-21T15:20:28;2.20;;;2.00;;
20073;SDS011;10197;54.282;10.078;2022-09-21T15:22:56;1.55;;;1.45;;